Time;durP1;ratioP1;P1;durP2;ratioP2;P2;SDS_P1;SDS_P2;PMS_P1;PMS_P2;Temp;Humidity;BMP_temperature;BMP_pressure;BME280_temperature;BME280_humidity;BME280_pressure;Samples;Min_cycle;Max_cycle;Signal;HPM_P1;HPM_P2
2023/11/10 00:02:44;;;;;;;0.73;0.43;;;22.80;57.20;;;;;;10405457;28;20290;-43
2023/11/10 00:07:49;;;;;;;3.45;0.80;;;22.80;57.10;;;;;;10411702;28;20598;-45
2023/11/10 00:12:54;;;;;;;0.93;0.70;;;22.80;57.20;;;;;;10410759;28;20231;-44
2023/11/10 00:17:58;;;;;;;2.40;0.50;;;22.80;57.10;;;;;;10409462;28;20227;-44
2023/11/10 00:23:02;;;;;;;3.03;0.55;;;22.80;57.10;;;;;;10411540;28;20204;-43
2023/11/10 00:28:07;;;;;;;2.85;0.70;;;22.80;57.10;;;;;;10410601;28;20270;-47
2023/11/10 00:33:10;;;;;;;2.03;0.70;;;22.80;57.10;;;;;;10406463;28;20199;-44
2023/11/10 00:38:14;;;;;;;1.27;0.60;;;22.70;57.00;;;;;;10405258;28;20251;-46
2023/11/10 00:43:19;;;;;;;1.33;0.60;;;22.70;57.00;;;;;;10409235;28;20204;-45
2023/11/10 00:48:23;;;;;;;1.20;0.60;;;22.80;57.00;;;;;;10409687;28;20246;-43
2023/11/10 00:53:27;;;;;;;1.10;0.50;;;22.80;57.10;;;;;;10409439;28;20254;-44
2023/11/10 00:58:32;;;;;;;2.03;0.80;;;22.80;57.00;;;;;;10408389;28;20248;-45
2023/11/10 01:03:36;;;;;;;1.02;0.60;;;22.70;56.90;;;;;;10408655;28;20228;-43
2023/11/10 01:08:40;;;;;;;0.88;0.60;;;22.80;57.00;;;;;;10408748;28;20297;-44
2023/11/10 01:13:45;;;;;;;1.52;0.73;;;22.70;56.90;;;;;;10396662;28;20274;-43
2023/11/10 01:18:49;;;;;;;0.73;0.52;;;22.80;57.00;;;;;;10396062;28;20596;-48
2023/11/10 01:23:52;;;;;;;2.13;0.70;;;22.80;57.00;;;;;;10393523;28;20209;-42
2023/11/10 01:28:57;;;;;;;1.27;0.60;;;22.80;56.90;;;;;;10398638;28;20224;-43
2023/11/10 01:34:01;;;;;;;0.88;0.50;;;22.80;56.90;;;;;;10402657;28;20216;-46
2023/11/10 01:39:08;;;;;;;1.10;0.70;;;22.80;56.90;;;;;;10394277;28;20265;-45
2023/11/10 01:44:13;;;;;;;0.90;0.40;;;22.80;56.90;;;;;;10404596;28;20204;-44
2023/11/10 01:49:21;;;;;;;0.90;0.70;;;22.70;56.80;;;;;;10406719;28;20227;-44
2023/11/10 01:54:28;;;;;;;1.67;0.63;;;22.70;56.80;;;;;;10404157;28;20266;-44
2023/11/10 01:59:34;;;;;;;0.93;0.70;;;22.70;56.80;;;;;;10408343;28;20309;-45
2023/11/10 02:04:38;;;;;;;0.73;0.50;;;22.70;56.80;;;;;;10408748;28;20273;-44
2023/11/10 02:09:42;;;;;;;1.38;0.80;;;22.70;56.80;;;;;;10406240;28;20266;-45
2023/11/10 02:14:47;;;;;;;1.00;0.60;;;22.70;56.80;;;;;;10412268;28;20254;-45
2023/11/10 02:19:51;;;;;;;1.73;0.57;;;22.70;56.80;;;;;;10413883;28;20769;-48
2023/11/10 02:24:57;;;;;;;0.95;0.70;;;22.70;56.80;;;;;;10414879;28;20204;-44
2023/11/10 02:30:02;;;;;;;1.05;0.65;;;22.70;56.80;;;;;;10415077;28;20208;-47
2023/11/10 02:35:08;;;;;;;1.00;0.65;;;22.70;56.80;;;;;;10413086;28;20204;-44
2023/11/10 02:40:12;;;;;;;1.25;0.55;;;22.70;56.70;;;;;;10411114;28;20224;-45
2023/11/10 02:45:17;;;;;;;1.20;0.60;;;22.70;56.70;;;;;;10414076;28;20870;-44
2023/11/10 02:50:21;;;;;;;1.83;0.50;;;22.70;56.70;;;;;;10414604;28;20223;-44
2023/11/10 02:55:24;;;;;;;2.08;0.75;;;22.70;57.30;;;;;;10414128;28;20765;-47
2023/11/10 03:00:29;;;;;;;1.55;0.50;;;22.70;56.70;;;;;;10406862;28;20310;-45
2023/11/10 03:05:33;;;;;;;1.42;0.60;;;22.70;56.70;;;;;;10413229;28;20224;-47
2023/11/10 03:10:36;;;;;;;0.93;0.70;;;22.70;57.30;;;;;;10408796;28;20205;-46
2023/11/10 03:15:41;;;;;;;1.63;0.52;;;22.70;56.60;;;;;;10389970;28;20236;-46
2023/11/10 03:20:47;;;;;;;1.38;0.70;;;22.70;56.60;;;;;;10394431;28;20708;-47
2023/11/10 03:25:51;;;;;;;1.38;0.80;;;22.70;56.70;;;;;;10403014;28;20694;-44
2023/11/10 03:30:55;;;;;;;1.00;0.65;;;22.70;56.70;;;;;;10409535;28;20270;-48
2023/11/10 03:35:59;;;;;;;0.60;0.52;;;22.70;56.70;;;;;;10411007;28;20228;-45
2023/11/10 03:41:03;;;;;;;1.73;0.70;;;22.70;56.70;;;;;;10409338;28;20294;-45
2023/11/10 03:46:08;;;;;;;1.42;0.50;;;22.70;56.70;;;;;;10410741;28;20239;-45
2023/11/10 03:51:12;;;;;;;1.17;0.60;;;22.70;56.60;;;;;;10411438;28;20242;-44
2023/11/10 03:56:16;;;;;;;2.13;0.70;;;22.70;56.60;;;;;;10409668;28;20266;-46
2023/11/10 04:01:21;;;;;;;0.85;0.60;;;22.70;56.60;;;;;;10411586;28;20275;-44
2023/11/10 04:06:25;;;;;;;0.82;0.68;;;22.70;56.60;;;;;;10411684;28;20224;-46
2023/11/10 04:11:40;;;;;;;1.00;0.50;;;22.70;56.60;;;;;;10410245;28;20246;-48
2023/11/10 04:16:45;;;;;;;1.00;0.47;;;22.70;56.60;;;;;;10411578;28;20282;-43
2023/11/10 04:21:48;;;;;;;0.82;0.50;;;22.70;56.60;;;;;;10402639;28;20270;-46
2023/11/10 04:26:52;;;;;;;1.02;0.40;;;22.70;56.60;;;;;;10409800;28;20220;-44
2023/11/10 04:31:57;;;;;;;2.75;0.68;;;22.70;57.30;;;;;;10408724;28;20203;-45
2023/11/10 04:37:00;;;;;;;0.88;0.60;;;22.70;56.60;;;;;;10408206;28;20236;-43
2023/11/10 04:42:05;;;;;;;1.42;0.68;;;22.70;56.60;;;;;;10408994;28;20208;-44
2023/11/10 04:47:10;;;;;;;0.73;0.57;;;22.70;56.60;;;;;;10410101;28;20255;-47
2023/11/10 04:52:15;;;;;;;1.00;0.43;;;22.70;56.60;;;;;;10408840;28;20598;-42
2023/11/10 04:57:20;;;;;;;0.60;0.60;;;22.70;56.60;;;;;;10405734;28;20220;-42
2023/11/10 05:02:25;;;;;;;0.93;0.60;;;22.70;56.60;;;;;;10407757;28;20262;-48
2023/11/10 05:07:29;;;;;;;1.17;0.70;;;22.70;56.60;;;;;;10409700;28;20224;-45
2023/11/10 05:12:34;;;;;;;1.00;0.60;;;22.70;56.60;;;;;;10408478;28;20204;-47
2023/11/10 05:17:41;;;;;;;0.70;0.50;;;22.70;56.60;;;;;;10407085;28;20644;-45
2023/11/10 05:22:46;;;;;;;0.65;0.45;;;22.70;56.60;;;;;;10409188;28;20201;-44
2023/11/10 05:27:50;;;;;;;0.77;0.47;;;22.70;56.60;;;;;;10404336;28;20239;-47
2023/11/10 05:32:55;;;;;;;5.32;0.88;;;22.70;56.60;;;;;;10396348;28;20331;-49
2023/11/10 05:37:59;;;;;;;7.35;0.93;;;22.70;56.60;;;;;;10408669;28;20224;-47
2023/11/10 05:43:02;;;;;;;8.00;0.82;;;22.70;56.60;;;;;;10405922;28;20246;-46
2023/11/10 05:48:08;;;;;;;4.70;0.93;;;22.70;56.60;;;;;;10401327;28;20286;-47
2023/11/10 05:53:12;;;;;;;2.45;0.57;;;22.70;56.60;;;;;;10413260;28;20664;-46
2023/11/10 05:58:15;;;;;;;2.28;0.70;;;22.70;56.90;;;;;;10409634;28;20247;-45
2023/11/10 06:03:21;;;;;;;1.10;0.65;;;22.70;56.60;;;;;;10414943;28;20717;-46
2023/11/10 06:08:25;;;;;;;3.50;0.68;;;22.70;56.60;;;;;;10415315;28;20220;-45
2023/11/10 06:13:30;;;;;;;1.65;0.50;;;22.70;56.60;;;;;;10415540;28;20204;-45
2023/11/10 06:18:38;;;;;;;1.85;0.90;;;22.70;56.60;;;;;;10414922;28;20318;-47
2023/11/10 06:23:41;;;;;;;1.92;0.60;;;22.70;56.60;;;;;;10414554;28;20744;-46
2023/11/10 06:28:46;;;;;;;1.20;0.52;;;22.70;57.20;;;;;;10415021;28;20687;-46
2023/11/10 06:33:52;;;;;;;1.33;0.65;;;22.70;56.50;;;;;;10414259;28;20204;-45
2023/11/10 06:38:55;;;;;;;1.67;0.77;;;22.70;56.50;;;;;;10413593;28;20318;-45
2023/11/10 06:43:59;;;;;;;0.85;0.50;;;22.70;56.50;;;;;;10415352;28;20204;-47
2023/11/10 06:49:04;;;;;;;0.90;0.68;;;22.70;56.50;;;;;;10412077;28;20224;-47
2023/11/10 06:54:09;;;;;;;1.25;0.63;;;22.70;56.50;;;;;;10405261;28;20209;-45
2023/11/10 06:59:12;;;;;;;1.50;0.57;;;22.70;56.60;;;;;;10390199;28;20220;-43
2023/11/10 07:04:17;;;;;;;2.47;0.70;;;22.70;56.50;;;;;;10393217;28;20633;-45
2023/11/10 07:09:21;;;;;;;1.35;0.60;;;22.70;56.50;;;;;;10403500;28;20220;-45
2023/11/10 07:14:25;;;;;;;1.30;0.70;;;22.70;56.50;;;;;;10383526;28;20223;-44
2023/11/10 07:19:31;;;;;;;1.08;0.60;;;22.70;56.50;;;;;;10399858;28;20274;-46
2023/11/10 07:24:35;;;;;;;1.23;0.50;;;22.70;56.50;;;;;;10408287;28;20552;-45
2023/11/10 07:29:38;;;;;;;1.77;0.60;;;22.70;56.50;;;;;;10411395;28;20228;-46
2023/11/10 07:34:45;;;;;;;1.92;0.98;;;22.70;56.50;;;;;;10407393;28;20204;-43
2023/11/10 07:39:49;;;;;;;1.95;1.00;;;22.20;52.00;;;;;;10382440;28;20845;-46
2023/11/10 07:44:52;;;;;;;3.28;1.02;;;21.50;51.70;;;;;;10412216;28;20625;-47
2023/11/10 07:49:57;;;;;;;1.33;0.90;;;21.20;52.50;;;;;;10407381;28;20627;-43
2023/11/10 07:55:01;;;;;;;2.35;0.80;;;21.40;53.50;;;;;;10405897;28;20278;-46
2023/11/10 08:00:07;;;;;;;1.75;0.90;;;21.60;53.80;;;;;;10407023;28;20657;-45
2023/11/10 08:05:12;;;;;;;3.50;0.98;;;21.80;53.80;;;;;;10398633;28;20286;-48
2023/11/10 08:10:16;;;;;;;2.45;0.77;;;21.90;53.50;;;;;;10407601;28;20211;-44
2023/11/10 08:15:20;;;;;;;2.28;0.90;;;21.90;53.50;;;;;;10406462;28;20228;-51
2023/11/10 08:20:29;;;;;;;2.72;1.10;;;21.90;53.60;;;;;;10405473;28;20251;-43
2023/11/10 08:25:33;;;;;;;3.47;0.77;;;22.00;53.70;;;;;;10377768;28;20640;-44
2023/11/10 08:30:36;;;;;;;1.08;0.82;;;22.10;54.50;;;;;;10406244;28;20219;-47
2023/11/10 08:35:42;;;;;;;1.52;0.65;;;22.20;53.90;;;;;;10406507;28;20228;-43
2023/11/10 08:40:45;;;;;;;1.45;0.60;;;22.20;54.50;;;;;;10409965;28;20236;-45
2023/11/10 08:45:49;;;;;;;1.42;0.60;;;22.30;53.90;;;;;;10404419;28;20236;-50
2023/11/10 08:50:55;;;;;;;1.05;0.57;;;22.30;53.90;;;;;;10407615;28;20258;-47
2023/11/10 08:55:58;;;;;;;1.27;0.60;;;22.30;54.00;;;;;;10408261;28;20666;-46
2023/11/10 09:01:04;;;;;;;0.77;0.60;;;22.30;54.00;;;;;;10402125;28;20240;-46
2023/11/10 09:06:10;;;;;;;1.48;0.65;;;22.30;54.00;;;;;;10392565;28;20342;-46
2023/11/10 09:11:13;;;;;;;2.67;0.70;;;22.40;54.10;;;;;;10398792;28;20197;-46
2023/11/10 09:16:17;;;;;;;0.57;0.50;;;22.40;54.10;;;;;;10391606;28;20270;-45
2023/11/10 09:21:22;;;;;;;4.22;0.65;;;22.40;54.10;;;;;;10398280;28;20224;-48
2023/11/10 09:26:26;;;;;;;1.70;0.77;;;22.40;54.10;;;;;;10387801;28;20225;-45
2023/11/10 09:31:29;;;;;;;4.13;0.70;;;22.40;54.80;;;;;;10393430;28;20254;-48
2023/11/10 09:36:35;;;;;;;1.15;0.80;;;22.40;54.10;;;;;;10408387;28;20228;-47
2023/11/10 09:41:41;;;;;;;0.75;0.43;;;22.40;54.10;;;;;;10406951;28;20305;-44
2023/11/10 09:46:47;;;;;;;1.45;0.60;;;22.40;54.10;;;;;;10407732;28;20228;-47
2023/11/10 09:51:53;;;;;;;1.70;0.57;;;22.50;54.30;;;;;;10404935;28;20254;-47
2023/11/10 09:56:58;;;;;;;0.88;0.40;;;22.50;54.20;;;;;;10407253;28;20593;-48
2023/11/10 10:02:01;;;;;;;2.47;0.60;;;22.50;54.30;;;;;;10407870;28;20259;-48
2023/11/10 10:07:11;;;;;;;2.08;0.75;;;22.50;54.30;;;;;;10406462;28;20648;-48
2023/11/10 10:12:15;;;;;;;3.47;0.75;;;22.50;54.30;;;;;;10403177;28;20200;-46
2023/11/10 10:17:18;;;;;;;1.02;0.57;;;22.50;54.30;;;;;;10406797;28;20817;-45
2023/11/10 10:22:26;;;;;;;2.03;0.70;;;22.50;54.30;;;;;;10407622;28;20290;-47
2023/11/10 10:27:30;;;;;;;1.25;0.50;;;22.50;54.30;;;;;;10404511;28;20282;-47
2023/11/10 10:32:34;;;;;;;1.67;0.70;;;22.50;54.40;;;;;;10401497;28;20196;-47
2023/11/10 10:37:41;;;;;;;1.30;0.70;;;22.50;54.40;;;;;;10414078;28;20220;-45
2023/11/10 10:42:45;;;;;;;0.52;0.40;;;22.50;54.40;;;;;;10411766;28;20298;-48
2023/11/10 10:47:50;;;;;;;1.50;0.80;;;22.50;54.40;;;;;;10410166;28;20232;-46
2023/11/10 10:52:58;;;;;;;0.70;0.45;;;22.60;54.40;;;;;;10408065;28;20200;-45
2023/11/10 10:58:01;;;;;;;1.50;0.70;;;22.60;54.40;;;;;;10413404;28;20278;-45
2023/11/10 11:03:21;;;;;;;1.15;0.70;;;22.60;54.40;;;;;;10413607;28;20252;-44
2023/11/10 11:08:47;;;;;;;0.95;0.50;;;22.60;54.40;;;;;;10413932;28;20270;-46
2023/11/10 11:14:09;;;;;;;1.63;0.73;;;22.60;54.40;;;;;;10403208;28;20200;-45
2023/11/10 11:19:22;;;;;;;1.52;0.60;;;22.60;54.50;;;;;;10392706;28;20281;-45
2023/11/10 11:24:30;;;;;;;1.10;0.50;;;22.60;54.40;;;;;;10392329;28;20924;-47
2023/11/10 11:29:38;;;;;;;1.35;0.60;;;22.60;54.50;;;;;;10410415;28;20301;-46
2023/11/10 11:34:50;;;;;;;0.73;0.50;;;22.60;54.50;;;;;;10411721;28;20200;-47
2023/11/10 11:39:55;;;;;;;1.35;0.60;;;22.60;54.50;;;;;;10412539;28;20262;-43
2023/11/10 11:45:00;;;;;;;0.80;0.68;;;22.60;54.40;;;;;;10407202;28;20224;-48
2023/11/10 11:50:05;;;;;;;2.65;0.63;;;22.60;54.40;;;;;;10412071;28;20204;-47
2023/11/10 11:55:11;;;;;;;2.70;0.70;;;22.60;54.40;;;;;;10408779;28;20224;-45
2023/11/10 12:00:17;;;;;;;3.08;0.80;;;22.60;54.30;;;;;;10406992;28;20250;-48
2023/11/10 12:05:20;;;;;;;4.00;0.88;;;22.60;54.40;;;;;;10408422;28;20232;-46
2023/11/10 12:10:25;;;;;;;3.60;0.90;;;22.60;54.30;;;;;;10409743;28;20215;-43
2023/11/10 12:15:30;;;;;;;2.95;0.80;;;22.60;54.40;;;;;;10406978;28;20228;-46
2023/11/10 12:20:35;;;;;;;1.73;0.77;;;22.60;54.40;;;;;;10409829;28;20217;-43
2023/11/10 12:25:40;;;;;;;3.15;0.70;;;22.70;54.50;;;;;;10403861;28;20221;-44
2023/11/10 12:30:45;;;;;;;2.28;0.80;;;22.70;54.50;;;;;;10399195;28;20255;-45
2023/11/10 12:35:50;;;;;;;2.97;0.70;;;22.60;54.40;;;;;;10396708;28;20314;-46
2023/11/10 12:40:56;;;;;;;2.05;0.70;;;22.70;54.50;;;;;;10394853;28;20616;-42
2023/11/10 12:46:12;;;;;;;1.95;0.85;;;22.70;54.60;;;;;;10380594;28;20263;-42
2023/11/10 12:51:16;;;;;;;2.47;0.60;;;22.70;55.20;;;;;;10406310;28;20274;-46
2023/11/10 12:56:21;;;;;;;2.20;0.65;;;22.70;54.50;;;;;;10405050;28;20220;-45
2023/11/10 13:01:24;;;;;;;3.03;0.80;;;22.70;54.60;;;;;;10402778;28;20274;-45
2023/11/10 13:06:29;;;;;;;2.30;0.80;;;22.70;54.70;;;;;;10409146;28;20228;-48
2023/11/10 13:11:34;;;;;;;1.15;0.60;;;22.70;54.60;;;;;;10404489;28;20200;-50
2023/11/10 13:16:38;;;;;;;1.73;1.00;;;22.70;54.60;;;;;;10395869;28;20266;-47
2023/11/10 13:21:41;;;;;;;2.13;0.80;;;22.70;54.60;;;;;;10395224;28;20250;-50
2023/11/10 13:26:46;;;;;;;1.90;0.60;;;22.60;54.50;;;;;;10398263;28;20224;-45
2023/11/10 13:31:51;;;;;;;1.20;0.68;;;22.60;54.60;;;;;;10405064;28;20258;-50
2023/11/10 13:36:56;;;;;;;1.80;0.70;;;22.60;54.60;;;;;;10405055;28;20648;-43
2023/11/10 13:42:01;;;;;;;1.35;0.90;;;22.60;54.60;;;;;;10406976;28;20293;-44
2023/11/10 13:47:05;;;;;;;1.73;0.80;;;22.60;54.60;;;;;;10404807;28;20236;-43
2023/11/10 13:52:10;;;;;;;1.33;0.65;;;22.60;54.60;;;;;;10405023;28;20200;-45
2023/11/10 13:57:15;;;;;;;1.45;0.82;;;22.60;54.60;;;;;;10403629;28;20216;-48
2023/11/10 14:02:19;;;;;;;2.28;0.73;;;22.60;54.60;;;;;;10407999;28;20332;-45
2023/11/10 14:07:23;;;;;;;0.90;0.50;;;22.60;54.60;;;;;;10407061;28;20224;-49
2023/11/10 14:12:28;;;;;;;2.05;0.80;;;22.60;54.70;;;;;;10415341;28;20563;-45
2023/11/10 14:17:33;;;;;;;1.38;0.73;;;22.60;54.70;;;;;;10414056;28;20220;-46
2023/11/10 14:22:39;;;;;;;6.88;1.00;;;22.60;54.70;;;;;;10415340;28;20244;-46
2023/11/10 14:27:44;;;;;;;8.43;1.40;;;22.70;54.80;;;;;;10413630;28;20313;-48
2023/11/10 14:32:48;;;;;;;3.80;0.70;;;22.70;54.80;;;;;;10414574;28;20219;-44
2023/11/10 14:37:58;;;;;;;1.63;0.70;;;22.70;54.80;;;;;;10409657;28;20228;-46
2023/11/10 14:43:05;;;;;;;4.10;0.70;;;22.70;54.80;;;;;;10409369;28;20297;-45
2023/11/10 14:48:13;;;;;;;4.97;0.80;;;22.70;54.80;;;;;;10409610;28;20653;-44
2023/11/10 14:53:24;;;;;;;2.75;0.68;;;22.70;54.80;;;;;;10412876;28;20753;-43
2023/11/10 14:58:30;;;;;;;2.78;0.77;;;22.70;54.80;;;;;;10408671;28;20224;-46
2023/11/10 15:03:34;;;;;;;3.42;0.75;;;22.70;54.90;;;;;;10407709;28;20251;-46
2023/11/10 15:08:38;;;;;;;2.65;0.70;;;22.70;54.90;;;;;;10412958;28;20224;-47
2023/11/10 15:13:43;;;;;;;1.45;0.80;;;22.70;54.90;;;;;;10405471;28;20232;-47
2023/11/10 15:18:50;;;;;;;2.72;0.52;;;22.70;54.90;;;;;;10364980;28;20260;-53
2023/11/10 15:23:53;;;;;;;5.32;0.70;;;22.70;54.90;;;;;;10383361;28;20313;-43
2023/11/10 15:28:58;;;;;;;1.23;0.80;;;22.70;55.00;;;;;;10402144;28;20224;-45
2023/11/10 15:34:03;;;;;;;1.77;0.60;;;22.60;54.90;;;;;;10393297;28;20254;-45
2023/11/10 15:39:09;;;;;;;1.30;0.70;;;22.60;55.00;;;;;;10407422;28;20256;-44
2023/11/10 15:44:20;;;;;;;1.17;0.50;;;22.70;55.10;;;;;;10409004;28;20248;-47
2023/11/10 15:49:23;;;;;;;2.90;0.70;;;22.70;55.10;;;;;;10409277;28;20256;-43
2023/11/10 15:54:27;;;;;;;1.50;0.60;;;22.70;55.10;;;;;;10409604;28;20223;-44
2023/11/10 15:59:33;;;;;;;2.08;0.90;;;22.70;55.20;;;;;;10405517;28;20418;-43
2023/11/10 16:04:36;;;;;;;1.10;0.40;;;22.60;55.10;;;;;;10396987;28;20252;-43
2023/11/10 16:09:43;;;;;;;1.48;0.70;;;22.70;55.30;;;;;;10398668;28;20224;-45
2023/11/10 16:14:49;;;;;;;1.70;0.60;;;22.70;55.30;;;;;;10403127;28;20232;-45
2023/11/10 16:19:53;;;;;;;2.58;0.90;;;22.70;55.30;;;;;;10408813;28;20261;-44
2023/11/10 16:24:56;;;;;;;3.03;0.80;;;22.70;55.40;;;;;;10411046;28;20228;-48
2023/11/10 16:30:01;;;;;;;1.42;0.65;;;22.70;55.50;;;;;;10411834;28;20261;-43
2023/11/10 16:35:06;;;;;;;1.55;0.63;;;22.70;55.50;;;;;;10410827;28;20254;-43
2023/11/10 16:40:11;;;;;;;1.77;0.70;;;22.70;55.50;;;;;;10411534;28;20196;-43
2023/11/10 16:45:16;;;;;;;2.63;0.70;;;22.70;55.50;;;;;;10410887;28;20284;-45
2023/11/10 16:50:19;;;;;;;1.17;0.60;;;22.70;55.50;;;;;;10408694;28;20250;-45
2023/11/10 16:55:23;;;;;;;1.75;0.68;;;22.70;55.50;;;;;;10407135;28;20216;-47
2023/11/10 17:00:28;;;;;;;18.63;2.05;;;22.70;55.50;;;;;;10408272;28;20263;-42
2023/11/10 17:05:46;;;;;;;10.65;1.45;;;22.60;55.50;;;;;;10406464;28;20247;-44
2023/11/10 17:10:50;;;;;;;7.30;1.42;;;22.70;55.70;;;;;;10404444;28;20699;-44
2023/11/10 17:15:55;;;;;;;4.18;1.33;;;22.70;55.70;;;;;;10379095;28;20220;-45
2023/11/10 17:20:59;;;;;;;2.47;1.33;;;22.70;55.80;;;;;;10410378;28;20208;-45
2023/11/10 17:26:03;;;;;;;5.78;1.10;;;22.80;55.80;;;;;;10406795;28;20318;-49
2023/11/10 17:31:08;;;;;;;2.55;0.88;;;22.90;55.80;;;;;;10402692;28;20259;-49
2023/11/10 17:36:12;;;;;;;2.22;1.00;;;22.90;55.90;;;;;;10403375;28;20236;-45
2023/11/10 17:41:15;;;;;;;2.08;1.13;;;22.90;55.80;;;;;;10400509;28;20239;-46
2023/11/10 17:46:20;;;;;;;3.55;0.90;;;22.90;55.90;;;;;;10408768;28;20728;-51
2023/11/10 17:51:24;;;;;;;2.33;0.80;;;22.90;56.00;;;;;;10408443;28;20253;-46
2023/11/10 17:56:28;;;;;;;2.67;0.90;;;22.80;55.90;;;;;;10384625;28;20220;-47
2023/11/10 18:01:33;;;;;;;2.63;0.90;;;22.80;56.00;;;;;;10405772;28;20200;-51
2023/11/10 18:06:36;;;;;;;4.20;1.00;;;22.80;56.00;;;;;;10408410;28;20691;-44
2023/11/10 18:11:40;;;;;;;2.17;0.80;;;22.80;56.00;;;;;;10402117;28;20208;-50
2023/11/10 18:16:47;;;;;;;4.40;1.05;;;22.80;56.10;;;;;;10403461;28;20247;-46
2023/11/10 18:21:50;;;;;;;4.70;1.17;;;22.80;56.10;;;;;;10408483;28;20667;-45
2023/11/10 18:26:54;;;;;;;4.82;1.17;;;22.80;56.10;;;;;;10405959;28;20251;-50
2023/11/10 18:32:00;;;;;;;1.73;0.80;;;22.80;56.10;;;;;;10407271;28;20204;-50
2023/11/10 18:37:03;;;;;;;2.72;0.90;;;22.90;56.20;;;;;;10404640;28;20239;-47
2023/11/10 18:42:07;;;;;;;1.80;0.90;;;23.00;56.20;;;;;;10407774;28;20205;-47
2023/11/10 18:47:12;;;;;;;2.45;0.90;;;23.10;56.20;;;;;;10404585;28;20259;-57
2023/11/10 18:52:16;;;;;;;2.35;1.27;;;23.10;56.30;;;;;;10407654;28;20231;-49
2023/11/10 18:57:19;;;;;;;2.90;1.10;;;23.20;56.20;;;;;;10410991;28;20228;-50
2023/11/10 19:02:24;;;;;;;3.28;0.98;;;23.20;56.20;;;;;;10405055;28;20431;-46
2023/11/10 19:07:27;;;;;;;12.13;1.63;;;23.10;56.20;;;;;;10411821;28;20308;-46
2023/11/10 19:12:31;;;;;;;5.55;1.33;;;23.10;56.20;;;;;;10407627;28;20664;-43
2023/11/10 19:17:36;;;;;;;2.40;0.95;;;23.00;56.20;;;;;;10401755;28;20251;-50
2023/11/10 19:22:40;;;;;;;5.57;1.10;;;23.00;56.30;;;;;;10406139;28;20208;-42
2023/11/10 19:27:44;;;;;;;2.28;1.15;;;23.00;56.30;;;;;;10413937;28;20298;-46
2023/11/10 19:32:49;;;;;;;3.80;1.40;;;23.00;56.30;;;;;;10413269;28;20223;-45
2023/11/10 19:37:53;;;;;;;1.85;1.05;;;23.00;56.30;;;;;;10405827;28;20290;-45
2023/11/10 19:42:57;;;;;;;1.58;0.90;;;22.90;56.30;;;;;;10409811;28;20200;-48
2023/11/10 19:48:02;;;;;;;1.85;1.23;;;22.90;56.30;;;;;;10411447;28;20727;-43
2023/11/10 19:53:06;;;;;;;3.42;1.08;;;22.90;56.30;;;;;;10408118;28;20227;-45
2023/11/10 19:58:09;;;;;;;2.55;1.13;;;22.90;56.30;;;;;;10412498;28;20273;-45
2023/11/10 20:03:17;;;;;;;1.75;1.00;;;22.90;56.30;;;;;;10325380;28;20197;-45
2023/11/10 20:08:21;;;;;;;1.77;1.13;;;22.90;56.40;;;;;;10305624;28;20260;-49
2023/11/10 20:13:26;;;;;;;3.42;1.55;;;22.90;56.50;;;;;;10326242;28;20684;-44
2023/11/10 20:18:31;;;;;;;4.03;1.38;;;22.90;56.60;;;;;;10339601;28;20224;-52
2023/11/10 20:23:37;;;;;;;3.38;1.60;;;22.90;56.80;;;;;;10390395;28;20765;-44
2023/11/10 20:28:41;;;;;;;3.88;1.70;;;22.90;56.90;;;;;;10412515;28;20232;-44
2023/11/10 20:33:46;;;;;;;5.32;1.50;;;22.90;56.90;;;;;;10408114;28;20220;-49
2023/11/10 20:38:53;;;;;;;3.10;1.73;;;22.90;57.00;;;;;;10394227;28;20286;-61
2023/11/10 20:43:56;;;;;;;4.50;2.28;;;22.90;57.10;;;;;;10404331;28;20700;-48
2023/11/10 20:49:01;;;;;;;4.40;1.70;;;22.90;57.10;;;;;;10408995;28;20282;-46
2023/11/10 20:54:05;;;;;;;6.53;2.20;;;22.90;57.90;;;;;;10410510;28;20251;-46
2023/11/10 20:59:09;;;;;;;4.50;2.47;;;22.90;57.30;;;;;;10381141;28;20607;-52
2023/11/10 21:04:18;;;;;;;5.10;2.50;;;22.90;57.30;;;;;;10401337;28;20224;-58
2023/11/10 21:09:22;;;;;;;3.97;2.33;;;22.90;57.40;;;;;;10398248;28;20228;-45
2023/11/10 21:14:26;;;;;;;7.68;2.83;;;22.90;57.30;;;;;;10382839;28;20609;-47
2023/11/10 21:19:31;;;;;;;5.38;3.08;;;22.90;57.30;;;;;;10332797;28;20244;-45
2023/11/10 21:24:36;;;;;;;7.78;3.30;;;22.90;57.30;;;;;;10402850;28;20246;-44
2023/11/10 21:29:39;;;;;;;5.65;3.38;;;22.90;57.30;;;;;;10404070;28;20255;-47
2023/11/10 21:34:44;;;;;;;5.97;3.70;;;22.80;57.20;;;;;;10399507;28;20660;-45
2023/11/10 21:39:48;;;;;;;4.20;2.90;;;22.90;57.30;;;;;;10407327;28;20228;-48
2023/11/10 21:44:51;;;;;;;4.63;2.67;;;22.80;57.20;;;;;;10406304;28;20302;-51
2023/11/10 21:49:56;;;;;;;5.28;2.90;;;22.80;57.20;;;;;;10408750;28;20207;-44
2023/11/10 21:55:00;;;;;;;3.80;2.60;;;22.80;57.20;;;;;;10407461;28;20226;-45
2023/11/10 22:00:05;;;;;;;3.50;2.45;;;22.80;57.20;;;;;;10407968;28;20204;-45
2023/11/10 22:05:12;;;;;;;3.67;2.30;;;22.80;57.20;;;;;;10407480;28;20216;-51
2023/11/10 22:10:16;;;;;;;3.05;2.13;;;22.80;57.10;;;;;;10404890;28;20196;-45
2023/11/10 22:15:20;;;;;;;2.65;2.10;;;22.80;57.20;;;;;;10408325;28;20270;-44
2023/11/10 22:20:25;;;;;;;3.58;2.30;;;22.80;57.20;;;;;;10409088;28;20227;-47
2023/11/10 22:25:29;;;;;;;4.53;2.33;;;22.80;57.20;;;;;;10406681;28;20219;-46
2023/11/10 22:30:33;;;;;;;2.95;2.20;;;22.80;57.20;;;;;;10408637;28;20196;-49
2023/11/10 22:35:39;;;;;;;3.58;2.10;;;22.80;57.20;;;;;;10413683;28;20211;-44
2023/11/10 22:40:42;;;;;;;3.65;2.13;;;22.80;57.30;;;;;;10415366;28;20204;-50
2023/11/10 22:45:46;;;;;;;5.00;2.70;;;22.80;57.30;;;;;;10414949;28;20274;-46
2023/11/10 22:50:52;;;;;;;3.00;2.10;;;22.80;57.30;;;;;;10415408;28;20757;-45
2023/11/10 22:55:55;;;;;;;5.22;2.50;;;22.80;57.90;;;;;;10413360;28;20220;-44
2023/11/10 23:01:00;;;;;;;3.47;1.92;;;22.80;57.30;;;;;;10414173;28;20209;-52
2023/11/10 23:06:06;;;;;;;3.90;2.00;;;22.80;57.30;;;;;;10408755;28;20251;-47
2023/11/10 23:11:10;;;;;;;4.10;2.10;;;22.80;57.30;;;;;;10414570;28;20200;-49
2023/11/10 23:16:15;;;;;;;3.42;2.00;;;22.80;57.30;;;;;;10413012;28;20781;-45
2023/11/10 23:21:22;;;;;;;3.70;2.17;;;22.80;57.90;;;;;;10410093;28;20204;-45
2023/11/10 23:26:27;;;;;;;3.88;1.90;;;22.80;57.30;;;;;;10411974;28;20778;-48
2023/11/10 23:31:31;;;;;;;3.60;1.88;;;22.80;57.30;;;;;;10409402;28;20208;-45
2023/11/10 23:36:36;;;;;;;3.22;1.67;;;22.80;57.30;;;;;;10414081;28;20278;-47
2023/11/10 23:41:40;;;;;;;6.70;1.80;;;22.80;57.30;;;;;;10411524;28;20208;-48
2023/11/10 23:46:44;;;;;;;2.30;1.40;;;22.80;57.30;;;;;;10407965;28;20228;-49
2023/11/10 23:51:50;;;;;;;2.53;1.83;;;22.80;57.30;;;;;;10411953;28;20250;-46
2023/11/10 23:56:53;;;;;;;2.58;1.73;;;22.80;57.30;;;;;;10410495;28;20274;-43
